createdAt,value
2017-09-25T00:02:11.932Z,43.30
2017-09-25T00:04:38.789Z,48.90
2017-09-25T00:07:05.588Z,56.03
2017-09-25T00:09:32.400Z,50.80
2017-09-25T00:11:59.520Z,46.77
2017-09-25T00:14:26.347Z,48.77
2017-09-25T00:16:53.164Z,42.73
2017-09-25T00:19:20.361Z,50.70
2017-09-25T00:21:47.179Z,57.33
2017-09-25T00:24:13.972Z,42.43
2017-09-25T00:26:41.092Z,56.70
2017-09-25T00:29:07.917Z,52.93
2017-09-25T00:31:34.716Z,52.93
2017-09-25T00:34:01.828Z,54.43
2017-09-25T00:36:28.654Z,54.73
2017-09-25T00:38:55.480Z,50.20
2017-09-25T00:41:22.340Z,66.27
2017-09-25T00:43:49.410Z,46.90
2017-09-25T00:46:16.559Z,46.63
2017-09-25T00:48:43.401Z,55.43
2017-09-25T00:51:10.248Z,56.37
2017-09-25T00:53:42.992Z,51.00
2017-09-25T00:56:09.805Z,44.60
2017-09-25T00:58:36.610Z,43.00
2017-09-25T01:01:11.442Z,51.30
2017-09-25T01:03:44.288Z,58.33
2017-09-25T01:06:17.516Z,47.07
2017-09-25T01:08:44.312Z,61.10
2017-09-25T01:11:11.107Z,53.37
2017-09-25T01:13:37.941Z,53.87
2017-09-25T01:16:04.764Z,44.63
2017-09-25T01:18:31.831Z,65.70
2017-09-25T01:20:58.985Z,56.60
2017-09-25T01:23:25.797Z,50.37
2017-09-25T01:25:52.644Z,54.40
2017-09-25T01:28:19.440Z,59.60
2017-09-25T01:30:46.238Z,58.07
2017-09-25T01:33:13.403Z,51.73
2017-09-25T01:35:40.234Z,48.63
2017-09-25T01:38:07.040Z,46.70
2017-09-25T01:40:34.144Z,56.13
2017-09-25T01:43:00.935Z,48.60
2017-09-25T01:45:27.753Z,56.17
2017-09-25T01:47:54.591Z,46.83
2017-09-25T01:50:21.391Z,54.23
2017-09-25T01:52:48.557Z,45.63
2017-09-25T01:55:15.707Z,63.30
2017-09-25T01:57:42.863Z,50.60
2017-09-25T02:00:09.687Z,53.43
2017-09-25T02:02:36.578Z,48.40
2017-09-25T02:05:03.372Z,45.83
2017-09-25T02:07:30.202Z,48.70
2017-09-25T02:09:57.275Z,58.33
2017-09-25T02:12:24.323Z,51.07
2017-09-25T02:14:51.372Z,51.73
2017-09-25T02:17:18.225Z,49.90
2017-09-25T02:19:45.368Z,56.80
2017-09-25T02:22:12.188Z,54.87
2017-09-25T02:24:39.360Z,46.50
2017-09-25T02:27:06.188Z,44.70
2017-09-25T02:29:33.247Z,48.47
2017-09-25T02:32:00.100Z,51.07
2017-09-25T02:34:27.247Z,58.97
2017-09-25T02:36:54.095Z,50.57
2017-09-25T02:39:20.941Z,64.80
2017-09-25T02:41:47.745Z,55.30
2017-09-25T02:44:14.540Z,59.83
2017-09-25T02:46:41.368Z,55.27
2017-09-25T02:49:08.505Z,58.40
2017-09-25T02:51:35.324Z,53.23
2017-09-25T02:54:02.197Z,47.17
2017-09-25T02:56:29.020Z,55.70
2017-09-25T02:58:55.816Z,57.10
2017-09-25T03:01:22.656Z,50.43
2017-09-25T03:03:49.544Z,54.27
2017-09-25T03:06:16.381Z,52.43
2017-09-25T03:08:43.456Z,54.03
2017-09-25T03:11:10.256Z,55.93
2017-09-25T03:13:37.088Z,54.50
2017-09-25T03:16:04.192Z,50.90
2017-09-25T03:18:31.013Z,70.57
2017-09-25T03:20:58.080Z,49.30
2017-09-25T03:23:25.236Z,59.23
2017-09-25T03:25:52.393Z,68.60
2017-09-25T03:28:19.184Z,47.90
2017-09-25T03:30:46.277Z,65.07
2017-09-25T03:33:13.072Z,50.43
2017-09-25T03:35:39.877Z,54.37
2017-09-25T03:38:06.723Z,39.50
2017-09-25T03:40:33.520Z,52.50
2017-09-25T03:43:00.323Z,50.43
2017-09-25T03:45:27.448Z,45.10
2017-09-25T03:47:54.592Z,46.40
2017-09-25T03:50:21.387Z,48.67
2017-09-25T03:52:48.213Z,42.67
2017-09-25T03:55:15.320Z,47.40
2017-09-25T03:57:42.468Z,56.57
2017-09-25T04:00:09.309Z,50.70
2017-09-25T04:02:36.184Z,47.60
2017-09-25T04:05:02.996Z,48.60
2017-09-25T04:07:29.830Z,47.20
2017-09-25T04:09:56.651Z,43.33
2017-09-25T04:12:23.480Z,48.57
2017-09-25T04:14:50.576Z,48.70
2017-09-25T04:17:17.624Z,44.33
2017-09-25T04:19:44.424Z,54.87
2017-09-25T04:22:11.292Z,57.13
2017-09-25T04:24:38.104Z,44.20
2017-09-25T04:27:04.945Z,52.20
2017-09-25T04:29:31.792Z,51.33
2017-09-25T04:31:58.889Z,49.60
2017-09-25T04:34:26.040Z,54.73
2017-09-25T04:36:52.896Z,48.87
2017-09-25T04:39:19.712Z,46.20
2017-09-25T04:41:46.776Z,52.40
2017-09-25T04:44:13.603Z,42.87
2017-09-25T04:46:40.416Z,55.33
2017-09-25T04:49:07.240Z,52.80
2017-09-25T04:51:34.084Z,46.23
2017-09-25T04:54:00.900Z,43.67
2017-09-25T04:56:28.042Z,46.23
2017-09-25T04:58:55.089Z,48.07
2017-09-25T05:01:21.896Z,58.90
2017-09-25T05:03:48.977Z,50.03
2017-09-25T05:06:16.129Z,42.57
2017-09-25T05:08:42.954Z,57.60
2017-09-25T05:11:09.808Z,54.10
2017-09-25T05:13:36.639Z,50.73
2017-09-25T05:16:03.464Z,45.10
2017-09-25T05:18:30.280Z,49.53
2017-09-25T05:20:57.392Z,53.00
2017-09-25T05:23:24.204Z,69.27
2017-09-25T05:25:51.011Z,60.13
2017-09-25T05:28:18.124Z,70.43
2017-09-25T05:30:44.920Z,54.63
2017-09-25T05:33:11.753Z,61.20
2017-09-25T05:35:38.572Z,65.37
2017-09-25T05:38:05.433Z,52.10
2017-09-25T05:40:32.226Z,62.50
2017-09-25T05:42:59.280Z,57.17
2017-09-25T05:45:26.091Z,53.33
2017-09-25T05:47:53.172Z,62.77
2017-09-25T05:50:19.999Z,55.63
2017-09-25T05:52:46.799Z,49.90
2017-09-25T05:55:13.912Z,51.57
2017-09-25T05:57:40.740Z,47.87
2017-09-25T06:00:07.913Z,50.73
2017-09-25T06:02:34.760Z,52.93
2017-09-25T06:05:03.412Z,54.57
2017-09-25T06:07:31.796Z,56.70
2017-09-25T06:10:00.799Z,46.93
2017-09-25T06:12:28.922Z,59.00
2017-09-25T06:14:57.948Z,55.23
2017-09-25T06:17:25.708Z,57.73
2017-09-25T06:19:53.015Z,45.80
2017-09-25T06:22:19.846Z,64.63
2017-09-25T06:24:46.955Z,52.30
2017-09-25T06:27:13.825Z,52.40
2017-09-25T06:29:41.027Z,40.87
2017-09-25T06:32:08.152Z,51.37
2017-09-25T06:34:35.061Z,44.13
2017-09-25T06:37:02.667Z,47.30
2017-09-25T06:39:30.130Z,42.60
2017-09-25T06:41:58.514Z,63.43
2017-09-25T06:44:26.480Z,45.03
2017-09-25T06:46:53.530Z,40.10
2017-09-25T06:49:20.618Z,50.03
2017-09-25T06:51:48.190Z,48.00
2017-09-25T06:54:15.322Z,55.47
2017-09-25T06:56:43.149Z,44.67
2017-09-25T06:59:10.923Z,43.80
2017-09-25T07:01:38.758Z,45.33
2017-09-25T07:04:06.768Z,48.43
2017-09-25T07:06:35.422Z,51.07
2017-09-25T07:09:02.665Z,41.00
2017-09-25T07:11:29.680Z,47.70
2017-09-25T07:13:56.861Z,47.97
2017-09-25T07:16:24.013Z,48.10
2017-09-25T07:18:51.165Z,47.10
2017-09-25T07:21:17.985Z,54.70
2017-09-25T07:23:44.814Z,43.63
2017-09-25T07:26:11.703Z,42.13
2017-09-25T07:28:38.557Z,52.53
2017-09-25T07:31:05.689Z,45.90
2017-09-25T07:33:32.557Z,43.00
2017-09-25T07:35:59.681Z,41.23
2017-09-25T07:38:26.829Z,44.53
2017-09-25T07:40:53.981Z,48.80
2017-09-25T07:43:20.825Z,50.03
2017-09-25T07:45:47.677Z,43.07
2017-09-25T07:48:14.818Z,47.90
2017-09-25T07:50:41.965Z,53.77
2017-09-25T07:53:08.793Z,40.27
2017-09-25T07:55:35.649Z,38.80
2017-09-25T07:58:02.805Z,37.80
2017-09-25T08:00:29.685Z,41.40
2017-09-25T08:02:56.903Z,36.97
2017-09-25T08:05:23.761Z,38.07
2017-09-25T08:07:50.889Z,42.77
2017-09-25T08:10:17.753Z,37.30
2017-09-25T08:12:44.613Z,39.47
2017-09-25T08:15:11.470Z,39.80
2017-09-25T08:17:38.677Z,35.77
2017-09-25T08:20:06.100Z,31.13
2017-09-25T08:22:32.957Z,46.87
2017-09-25T08:24:59.842Z,39.33
2017-09-25T08:27:26.697Z,40.23
2017-09-25T08:29:53.557Z,26.60
2017-09-25T08:32:20.758Z,41.90
2017-09-25T08:34:47.907Z,31.23
2017-09-25T08:37:14.761Z,38.10
2017-09-25T08:39:41.625Z,33.83
2017-09-25T08:42:08.477Z,31.67
2017-09-25T08:44:35.383Z,36.40
2017-09-25T08:47:02.288Z,32.73
2017-09-25T08:49:29.485Z,31.23
2017-09-25T08:51:56.338Z,31.37
2017-09-25T08:54:23.213Z,26.73
2017-09-25T08:56:50.053Z,25.50
2017-09-25T08:59:16.939Z,26.00
2017-09-25T09:01:43.826Z,25.27
2017-09-25T09:04:10.685Z,19.43
2017-09-25T09:06:37.543Z,22.47
2017-09-25T09:09:04.395Z,24.63
2017-09-25T09:11:31.246Z,27.40
2017-09-25T09:13:58.085Z,22.73
2017-09-25T09:16:24.929Z,35.37
2017-09-25T09:18:52.108Z,16.93
2017-09-25T09:21:19.255Z,16.40
2017-09-25T09:23:46.409Z,21.87
2017-09-25T09:26:13.253Z,20.20
2017-09-25T09:28:40.110Z,18.33
2017-09-25T09:31:06.986Z,17.87
2017-09-25T09:33:33.850Z,20.97
2017-09-25T09:36:00.693Z,17.30
2017-09-25T09:38:27.549Z,20.00
2017-09-25T09:40:54.430Z,19.10
2017-09-25T09:43:21.557Z,13.77
2017-09-25T09:45:48.461Z,15.10
2017-09-25T09:48:15.658Z,13.10
2017-09-25T09:50:42.515Z,21.97
2017-09-25T09:53:09.374Z,14.00
2017-09-25T09:55:36.498Z,15.07
2017-09-25T09:58:03.330Z,15.77
2017-09-25T10:00:30.186Z,17.10
2017-09-25T10:02:57.061Z,20.30
2017-09-25T10:05:23.925Z,12.43
2017-09-25T10:07:50.780Z,18.47
2017-09-25T10:10:18.561Z,16.03
2017-09-25T10:12:45.386Z,21.33
2017-09-25T10:15:12.573Z,16.90
2017-09-25T10:17:39.417Z,22.53
2017-09-25T10:20:06.269Z,25.07
2017-09-25T10:22:33.155Z,20.97
2017-09-25T10:24:59.991Z,13.03
2017-09-25T10:27:26.849Z,13.03
2017-09-25T10:29:53.686Z,18.20
2017-09-25T10:32:20.509Z,15.10
2017-09-25T10:34:47.621Z,15.17
2017-09-25T10:37:14.778Z,21.90
2017-09-25T10:39:41.606Z,11.80
2017-09-25T10:42:08.442Z,20.93
2017-09-25T10:44:35.605Z,14.80
2017-09-25T10:47:02.445Z,13.87
2017-09-25T10:49:29.301Z,18.20
2017-09-25T10:51:56.181Z,21.77
2017-09-25T10:54:23.821Z,18.73
2017-09-25T10:56:50.670Z,13.53
2017-09-25T10:59:17.598Z,23.27
2017-09-25T11:01:44.447Z,14.20
2017-09-25T11:04:11.304Z,19.20
2017-09-25T11:06:38.143Z,14.87
2017-09-25T11:09:05.008Z,18.50
2017-09-25T11:11:31.810Z,17.63
2017-09-25T11:13:58.668Z,16.43
2017-09-25T11:16:25.517Z,15.60
2017-09-25T11:18:52.361Z,11.63
2017-09-25T11:21:19.488Z,13.10
2017-09-25T11:23:46.336Z,17.37
2017-09-25T11:26:13.480Z,17.50
2017-09-25T11:28:40.324Z,16.43
2017-09-25T11:31:07.378Z,17.37
2017-09-25T11:33:34.183Z,13.17
2017-09-25T11:36:01.053Z,23.83
2017-09-25T11:38:28.198Z,13.70
2017-09-25T11:40:55.044Z,12.73
2017-09-25T11:43:21.908Z,18.90
2017-09-25T11:45:49.052Z,20.97
2017-09-25T11:48:15.919Z,18.33
2017-09-25T11:50:42.770Z,9.43
2017-09-25T11:53:09.647Z,14.83
2017-09-25T11:55:36.521Z,11.63
2017-09-25T11:58:03.421Z,7.17
2017-09-25T12:00:30.257Z,9.00
2017-09-25T12:02:57.128Z,14.40
2017-09-25T12:05:24.063Z,13.77
2017-09-25T12:07:50.874Z,14.53
2017-09-25T12:10:17.693Z,21.47
2017-09-25T12:12:44.557Z,11.93
2017-09-25T12:15:11.408Z,7.30
2017-09-25T12:17:38.248Z,13.03
2017-09-25T12:20:05.105Z,10.47
2017-09-25T12:22:31.987Z,12.10
2017-09-25T12:24:58.849Z,10.73
2017-09-25T12:27:25.711Z,9.03
2017-09-25T12:29:52.542Z,14.90
2017-09-25T12:32:19.380Z,9.87
2017-09-25T12:34:46.214Z,8.53
2017-09-25T12:37:13.068Z,7.13
2017-09-25T12:39:39.980Z,10.20
2017-09-25T12:42:06.874Z,9.43
2017-09-25T12:44:33.711Z,11.33
2017-09-25T12:47:00.841Z,11.17
2017-09-25T12:49:27.795Z,13.33
2017-09-25T12:51:54.652Z,10.93
2017-09-25T12:54:21.497Z,11.50
2017-09-25T12:56:48.347Z,6.90
2017-09-25T12:59:15.243Z,10.30
2017-09-25T13:01:42.062Z,10.73
2017-09-25T13:04:08.920Z,13.03
2017-09-25T13:06:35.778Z,12.97
2017-09-25T13:09:02.660Z,13.90
2017-09-25T13:11:29.546Z,14.73
2017-09-25T13:13:56.401Z,11.40
2017-09-25T13:16:23.214Z,7.93
2017-09-25T13:18:50.055Z,11.30
2017-09-25T13:21:16.889Z,14.93
2017-09-25T13:23:43.701Z,13.50
2017-09-25T13:26:10.834Z,11.40
2017-09-25T13:28:37.643Z,7.43
2017-09-25T13:31:04.731Z,9.80
2017-09-25T13:33:31.567Z,8.53
2017-09-25T13:35:58.416Z,11.20
2017-09-25T13:38:25.458Z,13.27
2017-09-25T13:40:52.610Z,13.27
2017-09-25T13:43:19.447Z,12.03
2017-09-25T13:45:46.611Z,12.77
2017-09-25T13:48:13.437Z,13.63
2017-09-25T13:50:40.247Z,13.43
2017-09-25T13:53:07.099Z,12.73
2017-09-25T13:55:33.939Z,8.83
2017-09-25T13:58:00.807Z,12.20
2017-09-25T14:03:01.828Z,12.70
2017-09-25T14:05:29.188Z,12.80
2017-09-25T14:07:56.580Z,16.70
2017-09-25T14:10:24.051Z,15.80
2017-09-25T14:12:51.748Z,16.13
2017-09-25T14:15:19.265Z,15.00
2017-09-25T14:17:46.473Z,17.80
2017-09-25T14:20:13.577Z,13.83
2017-09-25T14:22:40.391Z,17.60
2017-09-25T14:25:07.863Z,14.43
2017-09-25T14:27:35.341Z,19.80
2017-09-25T14:30:02.695Z,18.57
2017-09-25T14:32:30.561Z,14.93
2017-09-25T14:34:57.991Z,17.20
2017-09-25T14:37:25.470Z,18.20
2017-09-25T14:39:53.142Z,18.03
2017-09-25T14:42:20.437Z,17.93
2017-09-25T14:44:48.160Z,16.87
2017-09-25T14:47:15.879Z,17.77
2017-09-25T14:49:43.364Z,16.50
2017-09-25T14:52:10.917Z,14.83
2017-09-25T14:54:39.186Z,19.43
2017-09-25T14:57:06.534Z,16.17
2017-09-25T14:59:34.242Z,14.87
2017-09-25T15:02:01.594Z,14.70
2017-09-25T15:04:29.929Z,21.27
2017-09-25T15:06:56.795Z,14.53
2017-09-25T15:09:23.974Z,20.03
2017-09-25T15:11:51.122Z,15.27
2017-09-25T15:14:17.969Z,15.67
2017-09-25T15:16:45.390Z,18.63
2017-09-25T15:19:12.586Z,20.77
2017-09-25T15:21:40.204Z,18.83
2017-09-25T15:24:07.897Z,19.80
2017-09-25T15:26:34.886Z,17.90
2017-09-25T15:29:02.240Z,26.03
2017-09-25T15:31:29.843Z,22.60
2017-09-25T15:33:56.975Z,21.93
2017-09-25T15:36:24.301Z,17.60
2017-09-25T15:38:51.494Z,17.10
2017-09-25T15:41:19.069Z,22.07
2017-09-25T15:43:46.222Z,18.20
2017-09-25T15:46:13.700Z,25.90
2017-09-25T15:48:40.822Z,19.10
2017-09-25T15:51:08.058Z,19.00
2017-09-25T15:53:35.742Z,18.47
2017-09-25T15:56:02.957Z,20.63
2017-09-25T15:58:30.117Z,19.53
2017-09-25T16:00:56.962Z,26.20
2017-09-25T16:03:23.775Z,27.17
2017-09-25T16:05:50.562Z,19.40
2017-09-25T16:08:17.420Z,20.87
2017-09-25T16:10:44.250Z,26.48
2017-09-25T16:13:11.095Z,22.97
2017-09-25T16:15:37.931Z,24.23
2017-09-25T16:18:04.755Z,18.40
2017-09-25T16:20:31.574Z,20.53
2017-09-25T16:22:58.654Z,18.63
2017-09-25T16:25:25.472Z,18.03
2017-09-25T16:27:52.546Z,20.40
2017-09-25T16:30:19.357Z,24.43
2017-09-25T16:32:46.443Z,21.40
2017-09-25T16:35:13.226Z,18.87
2017-09-25T16:37:40.331Z,18.70
2017-09-25T16:40:07.373Z,23.57
2017-09-25T16:42:34.422Z,19.00
2017-09-25T16:45:01.579Z,22.60
2017-09-25T16:47:28.622Z,24.63
2017-09-25T16:49:55.441Z,19.00
2017-09-25T16:52:22.241Z,20.07
2017-09-25T16:54:49.043Z,23.13
2017-09-25T16:57:15.825Z,18.60
2017-09-25T16:59:43.045Z,18.37
2017-09-25T17:02:10.200Z,21.30
2017-09-25T17:04:37.246Z,19.40
2017-09-25T17:07:04.394Z,21.63
2017-09-25T17:09:31.184Z,19.80
2017-09-25T17:11:58.296Z,22.50
2017-09-25T17:14:25.113Z,23.23
2017-09-25T17:16:51.935Z,18.53
2017-09-25T17:19:18.738Z,13.97
2017-09-25T17:21:45.579Z,14.93
2017-09-25T17:24:12.701Z,14.60
2017-09-25T17:26:39.550Z,17.13
2017-09-25T17:29:06.362Z,11.90
2017-09-25T17:31:33.690Z,13.53
2017-09-25T17:34:00.509Z,13.70
2017-09-25T17:36:27.348Z,10.90
2017-09-25T17:38:54.137Z,13.80
2017-09-25T17:41:20.962Z,15.17
2017-09-25T17:43:47.808Z,11.10
2017-09-25T17:46:14.636Z,14.47
2017-09-25T17:48:41.470Z,17.30
2017-09-25T17:51:08.592Z,16.17
2017-09-25T17:53:35.423Z,13.53
2017-09-25T17:56:02.221Z,11.83
2017-09-25T17:58:29.043Z,12.70
2017-09-25T18:00:55.960Z,14.53
2017-09-25T18:03:22.784Z,15.23
2017-09-25T18:05:49.632Z,15.07
2017-09-25T18:08:16.480Z,16.23
2017-09-25T18:10:43.654Z,18.93
2017-09-25T18:13:10.482Z,13.00
2017-09-25T18:15:37.305Z,14.27
2017-09-25T18:18:04.120Z,17.27
2017-09-25T18:20:30.948Z,16.17
2017-09-25T18:22:57.806Z,20.70
2017-09-25T18:25:24.604Z,18.30
2017-09-25T18:27:51.475Z,12.97
2017-09-25T18:30:18.283Z,15.20
2017-09-25T18:32:45.112Z,15.65
2017-09-25T18:35:12.182Z,16.83
2017-09-25T18:37:39.005Z,15.17
2017-09-25T18:40:05.822Z,16.57
2017-09-25T18:42:32.675Z,23.37
2017-09-25T18:44:59.483Z,14.73
2017-09-25T18:47:26.288Z,14.00
2017-09-25T18:49:53.213Z,26.80
2017-09-25T18:52:20.292Z,14.80
2017-09-25T18:54:47.135Z,14.40
2017-09-25T18:57:13.981Z,16.20
2017-09-25T18:59:40.781Z,16.37
2017-09-25T19:02:07.620Z,19.83
2017-09-25T19:04:34.477Z,17.23
2017-09-25T19:07:01.332Z,19.37
2017-09-25T19:09:28.164Z,20.97
2017-09-25T19:11:54.988Z,18.97
2017-09-25T19:14:21.822Z,18.50
2017-09-25T19:16:48.632Z,22.30
2017-09-25T19:19:15.467Z,21.63
2017-09-25T19:21:42.291Z,22.67
2017-09-25T19:24:09.088Z,32.17
2017-09-25T19:26:35.940Z,16.90
2017-09-25T19:29:02.784Z,17.23
2017-09-25T19:31:29.593Z,17.57
2017-09-25T19:33:56.726Z,23.50
2017-09-25T19:36:23.529Z,19.03
2017-09-25T19:38:50.356Z,16.77
2017-09-25T19:41:17.455Z,16.67
2017-09-25T19:43:44.617Z,23.63
2017-09-25T19:46:11.434Z,19.10
2017-09-25T19:48:38.272Z,20.53
2017-09-25T19:51:05.122Z,18.87
2017-09-25T19:53:31.964Z,18.93
2017-09-25T19:55:58.821Z,17.47
2017-09-25T19:58:25.973Z,21.80
2017-09-25T20:00:52.828Z,16.27
2017-09-25T20:03:19.716Z,20.37
2017-09-25T20:05:46.508Z,17.10
2017-09-25T20:08:13.573Z,17.57
2017-09-25T20:10:40.701Z,18.43
2017-09-25T20:13:07.551Z,25.00
2017-09-25T20:15:34.345Z,19.00
2017-09-25T20:18:01.202Z,25.40
2017-09-25T20:20:28.017Z,22.77
2017-09-25T20:22:55.116Z,23.30
2017-09-25T20:25:21.944Z,24.83
2017-09-25T20:27:48.743Z,24.10
2017-09-25T20:30:15.564Z,21.20
2017-09-25T20:32:42.696Z,25.03
2017-09-25T20:35:09.497Z,25.40
2017-09-25T20:37:36.585Z,27.00
2017-09-25T20:40:03.444Z,27.73
2017-09-25T20:42:30.285Z,30.87
2017-09-25T20:44:57.100Z,36.47
2017-09-25T20:47:24.274Z,25.47
2017-09-25T20:49:51.424Z,25.73
2017-09-25T20:52:18.245Z,25.17
2017-09-25T20:54:45.416Z,30.93
2017-09-25T20:57:12.565Z,27.00
2017-09-25T20:59:39.361Z,26.63
2017-09-25T21:02:06.237Z,26.30
2017-09-25T21:04:33.027Z,32.40
2017-09-25T21:07:00.141Z,23.27
2017-09-25T21:09:26.984Z,34.30
2017-09-25T21:11:53.836Z,34.30
2017-09-25T21:14:20.896Z,26.97
2017-09-25T21:16:47.774Z,27.20
2017-09-25T21:19:14.577Z,30.93
2017-09-25T21:21:41.712Z,29.43
2017-09-25T21:24:08.556Z,28.27
2017-09-25T21:26:35.615Z,27.20
2017-09-25T21:29:02.757Z,33.13
2017-09-25T21:31:29.597Z,28.17
2017-09-25T21:33:56.428Z,25.93
2017-09-25T21:36:23.253Z,26.03
2017-09-25T21:38:50.324Z,34.83
2017-09-25T21:41:17.689Z,33.13
2017-09-25T21:43:44.489Z,26.60
2017-09-25T21:46:11.424Z,46.53
2017-09-25T21:48:38.235Z,35.93
2017-09-25T21:51:05.068Z,43.63
2017-09-25T21:53:31.908Z,29.47
2017-09-25T21:55:58.947Z,25.57
2017-09-25T21:58:25.845Z,30.40
2017-09-25T22:00:52.671Z,28.97
2017-09-25T22:03:19.535Z,34.23
2017-09-25T22:05:46.340Z,29.03
2017-09-25T22:08:13.205Z,27.20
2017-09-25T22:10:40.024Z,27.90
2017-09-25T22:13:06.824Z,28.70
2017-09-25T22:15:33.673Z,30.37
2017-09-25T22:18:00.491Z,26.70
2017-09-25T22:20:27.588Z,29.13
2017-09-25T22:22:54.460Z,27.30
2017-09-25T22:25:21.260Z,31.77
2017-09-25T22:27:48.091Z,31.40
2017-09-25T22:30:14.907Z,33.27
2017-09-25T22:32:41.739Z,25.43
2017-09-25T22:35:08.564Z,32.13
2017-09-25T22:37:35.412Z,28.50
2017-09-25T22:40:02.228Z,30.73
2017-09-25T22:42:29.056Z,29.83
2017-09-25T22:44:55.895Z,26.30
2017-09-25T22:47:22.712Z,28.90
2017-09-25T22:49:49.808Z,28.17
2017-09-25T22:52:16.956Z,33.83
2017-09-25T22:54:43.782Z,30.30
2017-09-25T22:57:10.596Z,34.07
2017-09-25T22:59:37.692Z,32.90
2017-09-25T23:02:04.537Z,32.53
2017-09-25T23:04:31.684Z,34.43
2017-09-25T23:06:58.527Z,25.47
2017-09-25T23:09:25.364Z,33.40
2017-09-25T23:11:52.412Z,31.20
2017-09-25T23:14:19.567Z,31.47
2017-09-25T23:16:46.361Z,26.50
2017-09-25T23:19:13.155Z,30.93
2017-09-25T23:21:40.400Z,35.40
2017-09-25T23:24:07.201Z,35.37
2017-09-25T23:26:34.048Z,32.30
2017-09-25T23:29:01.135Z,27.80
2017-09-25T23:31:28.155Z,29.60
2017-09-25T23:33:54.959Z,29.00
2017-09-25T23:36:22.079Z,30.10
2017-09-25T23:38:49.232Z,30.30
2017-09-25T23:41:16.027Z,31.30
2017-09-25T23:43:42.843Z,31.33
2017-09-25T23:46:09.642Z,27.20
2017-09-25T23:48:36.444Z,38.73
2017-09-25T23:51:03.287Z,28.20
2017-09-25T23:53:30.080Z,29.80
2017-09-25T23:55:56.913Z,28.20
2017-09-25T23:58:23.968Z,32.27
